createdAt,value
2022-11-29T00:01:24.487Z,6.40
2022-11-29T00:03:51.919Z,5.55
2022-11-29T00:06:21.922Z,5.95
2022-11-29T00:08:49.509Z,5.82
2022-11-29T00:11:43.790Z,5.10
2022-11-29T00:14:13.140Z,6.07
2022-11-29T00:16:42.879Z,6.28
2022-11-29T00:19:11.430Z,6.03
2022-11-29T00:21:38.628Z,6.18
2022-11-29T00:24:06.031Z,6.43
2022-11-29T00:26:32.788Z,5.93
2022-11-29T00:28:59.609Z,6.05
2022-11-29T00:31:30.432Z,6.63
2022-11-29T00:34:01.899Z,6.78
2022-11-29T00:36:29.400Z,5.88
2022-11-29T00:38:56.390Z,6.10
2022-11-29T00:41:23.347Z,5.95
2022-11-29T00:43:50.171Z,5.65
2022-11-29T00:46:17.192Z,5.97
2022-11-29T00:48:43.992Z,6.07
2022-11-29T00:51:10.858Z,5.75
2022-11-29T00:53:38.144Z,5.43
2022-11-29T00:56:06.177Z,6.05
2022-11-29T00:58:35.688Z,5.43
2022-11-29T01:01:03.469Z,4.68
2022-11-29T01:03:30.468Z,5.03
2022-11-29T01:06:06.801Z,5.32
2022-11-29T01:08:34.042Z,5.30
2022-11-29T01:11:11.243Z,5.50
2022-11-29T01:13:38.172Z,5.38
2022-11-29T01:16:05.889Z,5.65
2022-11-29T01:18:33.298Z,5.30
2022-11-29T01:21:09.452Z,4.90
2022-11-29T01:26:13.285Z,5.20
2022-11-29T01:28:41.044Z,5.35
2022-11-29T01:31:13.950Z,5.10
2022-11-29T01:33:41.442Z,4.93
2022-11-29T01:36:09.540Z,4.93
2022-11-29T01:38:36.868Z,5.00
2022-11-29T01:41:25.325Z,5.22
2022-11-29T01:44:13.911Z,5.07
2022-11-29T01:46:44.137Z,4.78
2022-11-29T01:49:10.894Z,4.90
2022-11-29T01:51:40.322Z,4.47
2022-11-29T01:54:08.740Z,4.57
2022-11-29T01:56:36.048Z,4.80
2022-11-29T01:59:07.816Z,4.60
2022-11-29T02:01:37.212Z,4.70
2022-11-29T02:04:04.599Z,5.18
2022-11-29T02:06:31.608Z,5.03
2022-11-29T02:08:58.565Z,5.13
2022-11-29T02:11:42.258Z,5.10
2022-11-29T02:14:31.152Z,4.80
2022-11-29T02:16:57.976Z,4.95
2022-11-29T02:19:46.050Z,5.05
2022-11-29T02:22:25.063Z,4.90
2022-11-29T02:25:29.894Z,5.03
2022-11-29T02:28:18.166Z,5.20
2022-11-29T02:31:03.002Z,5.30
2022-11-29T02:34:22.550Z,4.53
2022-11-29T02:37:11.301Z,4.32
2022-11-29T02:39:51.711Z,4.60
2022-11-29T02:42:21.251Z,4.90
2022-11-29T02:44:52.276Z,5.00
2022-11-29T02:47:48.037Z,4.78
2022-11-29T02:50:19.228Z,5.25
2022-11-29T02:53:13.375Z,5.25
2022-11-29T02:56:08.473Z,4.95
2022-11-29T02:58:50.596Z,4.95
2022-11-29T03:01:37.458Z,5.10
2022-11-29T03:04:22.345Z,5.13
2022-11-29T03:07:15.365Z,4.72
2022-11-29T03:10:10.816Z,5.25
2022-11-29T03:12:56.614Z,4.97
2022-11-29T03:15:48.546Z,5.33
2022-11-29T03:18:50.963Z,4.82
2022-11-29T03:21:17.698Z,5.32
2022-11-29T03:23:50.684Z,5.28
2022-11-29T03:26:41.395Z,5.53
2022-11-29T03:29:08.225Z,5.60
2022-11-29T03:32:02.031Z,5.45
2022-11-29T03:34:35.557Z,5.35
2022-11-29T03:37:19.714Z,4.90
2022-11-29T03:39:59.757Z,5.10
2022-11-29T03:42:32.998Z,5.28
2022-11-29T03:45:14.315Z,5.10
2022-11-29T03:47:50.740Z,5.20
2022-11-29T03:50:23.322Z,5.45
2022-11-29T03:52:55.865Z,5.45
2022-11-29T03:55:29.012Z,5.28
2022-11-29T03:58:28.543Z,5.47
2022-11-29T04:01:10.143Z,5.40
2022-11-29T04:03:50.549Z,5.65
2022-11-29T04:06:46.050Z,5.13
2022-11-29T04:09:33.936Z,5.25
2022-11-29T04:12:37.895Z,5.70
2022-11-29T04:15:16.495Z,5.63
2022-11-29T04:17:55.795Z,5.50
2022-11-29T04:20:48.176Z,6.38
2022-11-29T04:23:39.885Z,5.47
2022-11-29T04:26:40.931Z,5.45
2022-11-29T04:29:32.456Z,5.25
2022-11-29T04:32:17.986Z,6.00
2022-11-29T04:34:53.601Z,6.20
2022-11-29T04:37:39.281Z,6.57
2022-11-29T04:40:14.821Z,6.37
2022-11-29T04:42:44.352Z,6.50
2022-11-29T04:45:27.987Z,6.55
2022-11-29T04:48:32.423Z,6.32
2022-11-29T04:51:10.877Z,6.43
2022-11-29T04:53:53.730Z,6.32
2022-11-29T04:56:42.773Z,6.75
2022-11-29T04:59:34.703Z,6.80
2022-11-29T05:02:28.546Z,6.63
2022-11-29T05:05:21.647Z,5.93
2022-11-29T05:08:00.656Z,6.28
2022-11-29T05:11:10.506Z,6.15
2022-11-29T05:13:52.604Z,6.38
2022-11-29T05:16:19.370Z,6.97
2022-11-29T05:19:13.492Z,7.07
2022-11-29T05:21:58.983Z,7.05
2022-11-29T05:25:02.266Z,6.47
2022-11-29T05:27:42.236Z,6.60
2022-11-29T05:30:22.547Z,7.03
2022-11-29T05:32:55.381Z,6.68
2022-11-29T05:35:51.498Z,7.07
2022-11-29T05:38:45.288Z,7.93
2022-11-29T05:41:34.683Z,7.25
2022-11-29T05:44:07.220Z,7.15
2022-11-29T05:46:55.746Z,7.43
2022-11-29T05:49:41.191Z,7.00
2022-11-29T05:52:16.593Z,7.10
2022-11-29T05:54:58.116Z,6.88
2022-11-29T05:57:48.978Z,7.13
2022-11-29T06:00:18.319Z,7.45
2022-11-29T06:03:15.814Z,7.00
2022-11-29T06:06:05.921Z,7.82
2022-11-29T06:08:52.055Z,7.43
2022-11-29T06:11:24.773Z,8.15
2022-11-29T06:14:11.461Z,7.88
2022-11-29T06:16:51.525Z,6.85
2022-11-29T06:19:46.219Z,7.25
2022-11-29T06:22:37.655Z,7.22
2022-11-29T06:25:34.062Z,8.00
2022-11-29T06:28:35.407Z,8.15
2022-11-29T06:31:20.909Z,8.20
2022-11-29T06:33:50.695Z,8.07
2022-11-29T06:36:31.816Z,7.70
2022-11-29T06:38:58.891Z,7.95
2022-11-29T06:41:26.456Z,7.93
2022-11-29T06:43:53.617Z,7.43
2022-11-29T06:46:27.792Z,7.20
2022-11-29T06:49:12.560Z,7.28
2022-11-29T06:51:51.529Z,7.25
2022-11-29T06:54:35.052Z,7.38
2022-11-29T06:57:04.595Z,7.57
2022-11-29T07:00:03.572Z,7.60
2022-11-29T07:02:50.892Z,7.68
2022-11-29T07:05:30.895Z,8.00
2022-11-29T07:08:03.431Z,8.35
2022-11-29T07:10:33.527Z,7.90
2022-11-29T07:13:00.632Z,7.57
2022-11-29T07:15:28.182Z,7.18
2022-11-29T07:18:14.278Z,7.97
2022-11-29T07:21:08.745Z,7.72
2022-11-29T07:23:40.340Z,7.07
2022-11-29T07:26:33.311Z,7.90
2022-11-29T07:29:33.962Z,7.50
2022-11-29T07:32:10.024Z,8.10
2022-11-29T07:34:51.486Z,7.80
2022-11-29T07:37:53.556Z,7.78
2022-11-29T07:40:51.116Z,7.15
2022-11-29T07:43:36.810Z,7.53
2022-11-29T07:46:03.657Z,8.27
2022-11-29T07:48:30.440Z,7.80
2022-11-29T07:50:57.509Z,7.88
2022-11-29T07:53:24.697Z,7.78
2022-11-29T07:55:52.008Z,7.72
2022-11-29T07:58:19.192Z,7.70
2022-11-29T08:00:46.418Z,7.82
2022-11-29T08:03:13.281Z,7.22
2022-11-29T08:05:44.851Z,8.40
2022-11-29T08:08:11.586Z,7.53
2022-11-29T08:10:38.823Z,8.27
2022-11-29T08:13:05.563Z,8.30
2022-11-29T08:15:32.821Z,7.45
2022-11-29T08:17:59.627Z,7.43
2022-11-29T08:20:26.390Z,7.57
2022-11-29T08:22:59.952Z,7.90
2022-11-29T08:25:27.907Z,8.10
2022-11-29T08:27:55.341Z,7.53
2022-11-29T08:30:22.831Z,8.00
2022-11-29T08:32:52.960Z,7.22
2022-11-29T08:35:21.621Z,7.50
2022-11-29T08:37:49.049Z,7.35
2022-11-29T08:40:16.773Z,7.82
2022-11-29T08:42:43.643Z,7.45
2022-11-29T08:45:11.005Z,6.80
2022-11-29T08:47:40.134Z,7.40
2022-11-29T08:50:12.278Z,7.22
2022-11-29T08:53:00.205Z,7.90
2022-11-29T08:55:30.906Z,7.22
2022-11-29T08:58:04.407Z,7.03
2022-11-29T09:00:32.313Z,7.45
2022-11-29T09:03:21.079Z,7.15
2022-11-29T09:05:47.930Z,6.80
2022-11-29T09:08:15.024Z,6.60
2022-11-29T09:10:42.734Z,6.75
2022-11-29T09:13:10.620Z,6.50
2022-11-29T09:15:38.310Z,6.75
2022-11-29T09:18:05.822Z,6.95
2022-11-29T09:20:33.505Z,6.57
2022-11-29T09:23:01.264Z,6.50
2022-11-29T09:25:28.696Z,6.57
2022-11-29T09:27:58.428Z,6.55
2022-11-29T09:30:25.535Z,6.85
2022-11-29T09:32:52.357Z,6.88
2022-11-29T09:35:19.111Z,6.70
2022-11-29T09:37:45.892Z,6.82
2022-11-29T09:40:19.903Z,6.72
2022-11-29T09:43:02.389Z,6.57
2022-11-29T09:45:37.352Z,6.40
2022-11-29T09:48:51.413Z,7.38
2022-11-29T09:51:28.160Z,6.47
2022-11-29T09:54:24.069Z,6.07
2022-11-29T09:56:55.609Z,6.07
2022-11-29T09:59:33.762Z,6.70
2022-11-29T10:02:30.109Z,5.75
2022-11-29T10:05:21.863Z,5.57
2022-11-29T10:08:09.006Z,5.78
2022-11-29T10:10:49.608Z,6.05
2022-11-29T10:13:23.486Z,5.72
2022-11-29T10:16:13.795Z,5.47
2022-11-29T10:18:48.393Z,5.68
2022-11-29T10:21:20.192Z,5.28
2022-11-29T10:23:50.951Z,5.30
2022-11-29T10:26:18.127Z,5.50
2022-11-29T10:28:47.556Z,5.32
2022-11-29T10:31:19.730Z,5.18
2022-11-29T10:33:47.508Z,5.35
2022-11-29T10:36:41.936Z,5.30
2022-11-29T10:39:26.046Z,5.18
2022-11-29T10:42:00.083Z,5.05
2022-11-29T10:44:27.144Z,4.90
2022-11-29T10:46:55.328Z,5.00
2022-11-29T10:49:26.085Z,5.15
2022-11-29T10:51:52.927Z,5.50
2022-11-29T10:54:32.246Z,5.15
2022-11-29T10:57:01.457Z,5.38
2022-11-29T10:59:30.801Z,5.10
2022-11-29T11:01:58.344Z,4.82
2022-11-29T11:04:29.759Z,4.75
2022-11-29T11:07:01.319Z,5.10
2022-11-29T11:09:50.806Z,4.80
2022-11-29T11:12:21.977Z,5.30
2022-11-29T11:14:50.142Z,5.18
2022-11-29T11:17:29.988Z,4.65
2022-11-29T11:20:04.397Z,5.18
2022-11-29T11:22:33.365Z,4.60
2022-11-29T11:25:06.514Z,4.55
2022-11-29T11:27:36.107Z,4.43
2022-11-29T11:30:27.547Z,4.47
2022-11-29T11:33:31.467Z,4.38
2022-11-29T11:36:05.450Z,4.43
2022-11-29T11:38:33.836Z,4.45
2022-11-29T11:41:50.508Z,4.65
2022-11-29T11:44:47.273Z,4.40
2022-11-29T11:47:21.810Z,4.60
2022-11-29T11:49:56.208Z,4.63
2022-11-29T11:52:40.039Z,4.03
2022-11-29T11:55:22.408Z,4.03
2022-11-29T11:58:03.350Z,4.18
2022-11-29T12:01:03.360Z,4.30
2022-11-29T12:03:52.622Z,4.32
2022-11-29T12:06:26.136Z,4.28
2022-11-29T12:09:18.586Z,3.65
2022-11-29T12:12:26.537Z,3.90
2022-11-29T12:14:59.272Z,4.07
2022-11-29T12:17:45.824Z,4.22
2022-11-29T12:20:36.608Z,4.22
2022-11-29T12:23:09.451Z,3.97
2022-11-29T12:25:41.055Z,4.35
2022-11-29T12:28:17.187Z,4.18
2022-11-29T12:31:16.425Z,4.60
2022-11-29T12:33:53.957Z,4.63
2022-11-29T12:36:26.524Z,4.60
2022-11-29T12:39:18.625Z,4.57
2022-11-29T12:42:10.410Z,4.70
2022-11-29T12:45:03.605Z,4.30
2022-11-29T12:47:36.160Z,4.10
2022-11-29T12:50:08.148Z,4.43
2022-11-29T12:52:47.227Z,4.50
2022-11-29T12:55:19.836Z,3.92
2022-11-29T12:57:58.297Z,4.38
2022-11-29T13:00:32.808Z,3.90
2022-11-29T13:03:17.354Z,4.20
2022-11-29T13:06:14.309Z,4.07
2022-11-29T13:11:25.122Z,3.72
2022-11-29T13:14:13.828Z,3.53
2022-11-29T13:17:03.939Z,3.78
2022-11-29T13:19:38.131Z,4.15
2022-11-29T13:22:21.017Z,3.85
2022-11-29T13:24:53.356Z,4.00
2022-11-29T13:27:27.452Z,3.50
2022-11-29T13:29:56.103Z,4.07
2022-11-29T13:32:37.154Z,3.25
2022-11-29T13:35:30.563Z,3.55
2022-11-29T13:38:09.137Z,4.05
2022-11-29T13:40:51.188Z,3.70
2022-11-29T13:43:35.521Z,3.63
2022-11-29T13:46:35.789Z,4.25
2022-11-29T13:49:03.061Z,4.03
2022-11-29T13:51:37.597Z,4.20
2022-11-29T13:54:24.657Z,3.65
2022-11-29T13:57:05.122Z,3.83
2022-11-29T13:59:34.609Z,3.92
2022-11-29T14:02:01.989Z,4.03
2022-11-29T14:04:36.624Z,3.90
2022-11-29T14:07:18.359Z,3.70
2022-11-29T14:09:45.146Z,3.60
2022-11-29T14:12:31.092Z,3.85
2022-11-29T14:15:03.026Z,3.88
2022-11-29T14:17:51.709Z,3.45
2022-11-29T14:20:28.420Z,3.17
2022-11-29T14:23:16.099Z,3.70
2022-11-29T14:26:02.941Z,3.70
2022-11-29T14:28:40.051Z,4.45
2022-11-29T14:31:08.359Z,3.88
2022-11-29T14:33:46.845Z,3.95
2022-11-29T14:36:32.713Z,4.30
2022-11-29T14:39:26.437Z,3.90
2022-11-29T14:42:19.183Z,3.80
2022-11-29T14:44:57.658Z,4.15
2022-11-29T14:47:48.961Z,3.80
2022-11-29T14:50:34.692Z,4.03
2022-11-29T14:53:05.287Z,3.85
2022-11-29T14:55:38.217Z,3.70
2022-11-29T14:58:16.772Z,3.60
2022-11-29T15:00:44.578Z,3.80
2022-11-29T15:03:17.659Z,3.38
2022-11-29T15:06:10.541Z,3.50
2022-11-29T15:09:15.088Z,3.65
2022-11-29T15:11:52.314Z,3.97
2022-11-29T15:14:50.354Z,3.88
2022-11-29T15:17:35.774Z,3.58
2022-11-29T15:20:25.525Z,3.92
2022-11-29T15:22:56.259Z,3.42
2022-11-29T15:25:30.928Z,3.92
2022-11-29T15:28:03.484Z,3.47
2022-11-29T15:30:41.321Z,4.40
2022-11-29T15:33:23.905Z,3.95
2022-11-29T15:35:56.743Z,4.18
2022-11-29T15:38:24.340Z,4.18
2022-11-29T15:40:53.050Z,4.20
2022-11-29T15:43:26.216Z,4.40
2022-11-29T15:45:55.492Z,4.70
2022-11-29T15:48:28.225Z,4.60
2022-11-29T15:51:17.151Z,4.43
2022-11-29T15:54:13.258Z,4.57
2022-11-29T15:56:52.361Z,4.10
2022-11-29T15:59:48.354Z,3.92
2022-11-29T16:02:23.050Z,3.50
2022-11-29T16:04:54.837Z,3.67
2022-11-29T16:07:24.439Z,3.45
2022-11-29T16:09:58.408Z,3.55
2022-11-29T16:12:26.347Z,3.47
2022-11-29T16:14:56.503Z,3.65
2022-11-29T16:17:29.522Z,3.00
2022-11-29T16:20:14.535Z,3.20
2022-11-29T16:22:41.338Z,3.60
2022-11-29T16:25:19.368Z,3.15
2022-11-29T16:27:46.812Z,2.92
2022-11-29T16:30:22.007Z,3.38
2022-11-29T16:32:58.687Z,3.00
2022-11-29T16:35:29.154Z,3.05
2022-11-29T16:37:56.565Z,2.90
2022-11-29T16:40:24.944Z,3.40
2022-11-29T16:43:04.680Z,3.05
2022-11-29T16:45:34.747Z,2.70
2022-11-29T16:48:02.832Z,3.67
2022-11-29T16:50:31.568Z,3.42
2022-11-29T16:53:39.435Z,3.53
2022-11-29T16:56:14.902Z,3.55
2022-11-29T16:59:20.543Z,3.47
2022-11-29T17:01:31.878Z,3.75
2022-11-29T17:04:00.073Z,3.38
2022-11-29T17:06:28.400Z,3.40
2022-11-29T17:08:57.541Z,3.08
2022-11-29T17:11:25.344Z,2.92
2022-11-29T17:13:53.216Z,3.40
2022-11-29T17:16:22.192Z,3.03
2022-11-29T17:18:49.623Z,3.38
2022-11-29T17:21:20.544Z,3.20
2022-11-29T17:23:47.676Z,3.17
2022-11-29T17:26:15.469Z,3.40
2022-11-29T17:28:46.826Z,3.10
2022-11-29T17:31:24.155Z,3.58
2022-11-29T17:33:51.586Z,2.88
2022-11-29T17:36:20.823Z,3.08
2022-11-29T17:38:48.256Z,2.88
2022-11-29T17:41:20.207Z,2.85
2022-11-29T17:43:47.086Z,2.75
2022-11-29T17:46:16.230Z,3.03
2022-11-29T17:48:45.389Z,3.38
2022-11-29T17:51:43.534Z,3.00
2022-11-29T17:54:02.920Z,3.17
2022-11-29T17:56:30.299Z,3.17
2022-11-29T17:58:59.101Z,2.60
2022-11-29T18:01:28.858Z,2.75
2022-11-29T18:03:58.777Z,2.70
2022-11-29T18:06:28.235Z,3.10
2022-11-29T18:08:57.489Z,2.67
2022-11-29T18:11:47.062Z,2.60
2022-11-29T18:14:17.169Z,2.92
2022-11-29T18:16:45.431Z,2.90
2022-11-29T18:19:15.463Z,2.97
2022-11-29T18:21:42.630Z,3.03
2022-11-29T18:24:09.640Z,3.30
2022-11-29T18:26:38.067Z,3.15
2022-11-29T18:29:05.848Z,3.45
2022-11-29T18:31:35.820Z,3.63
2022-11-29T18:34:09.664Z,3.65
2022-11-29T18:36:47.950Z,3.78
2022-11-29T18:39:17.167Z,3.33
2022-11-29T18:41:46.704Z,3.22
2022-11-29T18:44:15.055Z,3.20
2022-11-29T18:46:43.837Z,3.25
2022-11-29T18:49:13.345Z,3.50
2022-11-29T18:51:42.748Z,3.05
2022-11-29T18:54:09.874Z,2.95
2022-11-29T18:56:37.360Z,3.25
2022-11-29T18:59:08.484Z,3.85
2022-11-29T19:01:40.748Z,3.10
2022-11-29T19:04:09.205Z,3.00
2022-11-29T19:06:39.704Z,3.17
2022-11-29T19:09:11.195Z,3.30
2022-11-29T19:11:38.703Z,3.05
2022-11-29T19:14:11.316Z,3.15
2022-11-29T19:16:44.211Z,3.50
2022-11-29T19:19:11.645Z,2.90
2022-11-29T19:21:39.935Z,3.25
2022-11-29T19:24:13.477Z,3.10
2022-11-29T19:26:41.151Z,2.50
2022-11-29T19:29:07.981Z,2.80
2022-11-29T19:31:34.722Z,2.28
2022-11-29T19:34:01.672Z,2.25
2022-11-29T19:36:30.422Z,2.63
2022-11-29T19:38:59.761Z,2.13
2022-11-29T19:41:32.142Z,2.65
2022-11-29T19:44:02.293Z,2.30
2022-11-29T19:46:32.773Z,2.40
2022-11-29T19:49:00.661Z,2.78
2022-11-29T19:51:29.153Z,2.75
2022-11-29T19:54:01.235Z,2.30
2022-11-29T19:56:29.050Z,2.53
2022-11-29T19:58:56.087Z,1.98
2022-11-29T20:01:25.351Z,2.47
2022-11-29T20:03:54.855Z,2.60
2022-11-29T20:06:21.859Z,2.60
2022-11-29T20:08:48.773Z,2.28
2022-11-29T20:11:23.589Z,2.33
2022-11-29T20:13:58.436Z,2.60
2022-11-29T20:16:25.953Z,2.63
2022-11-29T20:18:53.857Z,2.97
2022-11-29T20:21:25.111Z,2.42
2022-11-29T20:23:57.164Z,2.40
2022-11-29T20:26:24.517Z,2.50
2022-11-29T20:28:51.521Z,2.30
2022-11-29T20:31:21.482Z,2.10
2022-11-29T20:33:49.934Z,2.15
2022-11-29T20:36:44.213Z,2.20
2022-11-29T20:39:14.142Z,2.30
2022-11-29T20:41:49.812Z,2.03
2022-11-29T20:44:20.882Z,2.30
2022-11-29T20:46:47.864Z,2.83
2022-11-29T20:49:15.203Z,2.60
2022-11-29T20:51:51.186Z,2.70
2022-11-29T20:54:19.376Z,3.03
2022-11-29T20:56:46.227Z,2.97
2022-11-29T20:59:13.116Z,2.92
2022-11-29T21:01:39.941Z,3.70
2022-11-29T21:04:06.744Z,2.90
2022-11-29T21:06:37.860Z,3.83
2022-11-29T21:09:05.681Z,3.88
2022-11-29T21:11:32.862Z,4.40
2022-11-29T21:14:03.786Z,4.18
2022-11-29T21:16:31.787Z,4.65
2022-11-29T21:19:01.845Z,4.28
2022-11-29T21:21:44.585Z,4.22
2022-11-29T21:24:19.934Z,4.63
2022-11-29T21:26:51.133Z,5.07
2022-11-29T21:29:23.062Z,5.57
2022-11-29T21:31:52.928Z,5.72
2022-11-29T21:34:20.643Z,5.65
2022-11-29T21:36:57.085Z,5.22
2022-11-29T21:39:31.175Z,5.60
2022-11-29T21:41:57.926Z,5.85
2022-11-29T21:44:24.735Z,6.15
2022-11-29T21:46:51.577Z,5.97
2022-11-29T21:49:19.120Z,6.22
2022-11-29T21:51:46.321Z,5.35
2022-11-29T21:54:13.228Z,5.40
2022-11-29T21:56:40.054Z,5.07
2022-11-29T21:59:06.803Z,5.35
2022-11-29T22:01:33.930Z,5.18
2022-11-29T22:04:01.068Z,5.47
2022-11-29T22:06:29.279Z,5.35
2022-11-29T22:08:56.397Z,5.32
2022-11-29T22:11:34.564Z,5.15
2022-11-29T22:14:18.365Z,5.30
2022-11-29T22:16:48.334Z,4.88
2022-11-29T22:19:23.436Z,5.22
2022-11-29T22:21:53.340Z,4.85
2022-11-29T22:24:22.993Z,5.38
2022-11-29T22:26:50.724Z,4.85
2022-11-29T22:29:17.856Z,5.07
2022-11-29T22:31:47.023Z,5.30
2022-11-29T22:34:14.136Z,4.50
2022-11-29T22:36:41.413Z,4.93
2022-11-29T22:39:09.193Z,4.95
2022-11-29T22:41:37.177Z,4.90
2022-11-29T22:44:04.706Z,5.00
2022-11-29T22:46:32.022Z,4.78
2022-11-29T22:49:00.597Z,4.75
2022-11-29T22:51:35.790Z,4.88
2022-11-29T22:54:05.467Z,5.03
2022-11-29T22:56:35.648Z,5.10
2022-11-29T22:59:02.539Z,4.95
2022-11-29T23:01:31.509Z,5.05
2022-11-29T23:04:00.882Z,5.07
2022-11-29T23:06:31.499Z,5.28
2022-11-29T23:09:04.067Z,5.07
2022-11-29T23:11:31.721Z,4.60
2022-11-29T23:13:58.503Z,5.07
2022-11-29T23:16:27.953Z,4.90
2022-11-29T23:18:56.412Z,5.00
2022-11-29T23:21:29.477Z,5.50
2022-11-29T23:23:57.102Z,5.45
2022-11-29T23:26:36.297Z,4.88
2022-11-29T23:29:04.805Z,5.55
2022-11-29T23:31:31.770Z,5.13
2022-11-29T23:33:58.591Z,5.30
2022-11-29T23:36:25.715Z,5.38
2022-11-29T23:38:52.583Z,5.63
2022-11-29T23:41:19.540Z,5.88
2022-11-29T23:43:46.290Z,5.60
2022-11-29T23:46:19.230Z,6.07
2022-11-29T23:48:46.370Z,5.57
2022-11-29T23:51:13.793Z,5.63
2022-11-29T23:53:41.256Z,5.40
2022-11-29T23:56:12.777Z,5.13
2022-11-29T23:58:39.641Z,5.60
